createdAt,value
2022-08-25T03:16:29.853Z,4.10
2022-08-25T03:19:39.406Z,3.67
2022-08-25T03:22:49.699Z,3.80
2022-08-25T03:26:10.252Z,3.77
2022-08-25T03:29:20.287Z,4.07
2022-08-25T03:32:31.190Z,5.03
2022-08-25T03:35:40.993Z,4.10
2022-08-25T03:38:50.835Z,4.23
2022-08-25T03:42:00.392Z,4.37
2022-08-25T03:45:11.639Z,4.93
2022-08-25T03:48:22.434Z,3.83
2022-08-25T03:51:34.718Z,4.70
2022-08-25T03:54:44.207Z,4.00
2022-08-25T03:57:55.220Z,4.70
2022-08-25T04:01:04.769Z,3.77
2022-08-25T04:04:16.946Z,3.67
2022-08-25T04:07:26.416Z,4.13
2022-08-25T04:10:37.409Z,4.60
2022-08-25T04:13:48.997Z,4.60
2022-08-25T04:16:58.806Z,4.77
2022-08-25T04:20:13.988Z,4.93
2022-08-25T04:23:23.831Z,4.83
2022-08-25T04:26:37.033Z,4.73
2022-08-25T04:29:46.503Z,3.90
2022-08-25T04:32:55.990Z,4.30
2022-08-25T04:36:12.394Z,4.30
2022-08-25T04:39:22.480Z,3.90
2022-08-25T04:42:31.998Z,4.33
2022-08-25T04:45:41.724Z,4.73
2022-08-25T04:48:52.737Z,4.83
2022-08-25T04:52:03.703Z,4.97
2022-08-25T04:55:13.845Z,4.73
2022-08-25T04:58:23.365Z,4.60
2022-08-25T06:36:50.397Z,20.73
2022-08-25T06:40:00.247Z,26.20
2022-08-25T06:43:10.017Z,24.07
2022-08-25T06:46:22.264Z,31.97
2022-08-25T06:49:46.826Z,24.27
2022-08-25T06:52:57.841Z,18.63
2022-08-25T06:56:08.484Z,14.20
2022-08-25T06:59:18.699Z,14.57
2022-08-25T07:02:28.502Z,11.10
2022-08-25T07:05:43.694Z,10.80
2022-08-25T07:08:55.351Z,10.87
2022-08-25T07:12:05.657Z,8.17
2022-08-25T07:15:20.545Z,5.43
2022-08-25T07:18:30.777Z,8.93
2022-08-25T07:21:42.437Z,5.20
2022-08-25T07:24:56.397Z,4.53
2022-08-25T07:28:05.874Z,4.77
2022-08-25T07:31:15.770Z,4.80
2022-08-25T07:34:36.339Z,5.57
2022-08-25T07:37:50.886Z,6.00
2022-08-25T07:41:04.905Z,7.07
2022-08-25T07:44:14.861Z,5.33
2022-08-25T07:47:24.359Z,5.47
2022-08-25T07:50:34.514Z,6.57
2022-08-25T07:53:44.640Z,5.57
2022-08-25T07:56:55.485Z,5.50
2022-08-25T08:00:06.715Z,5.30
2022-08-25T08:03:35.483Z,5.83
2022-08-25T08:06:51.795Z,5.57
2022-08-25T08:10:29.650Z,8.20
2022-08-25T08:13:35.719Z,6.00
2022-08-25T08:16:49.482Z,5.47
2022-08-25T08:19:59.383Z,6.07
2022-08-25T08:23:08.908Z,6.43
2022-08-25T08:26:19.272Z,6.73
2022-08-25T08:29:30.080Z,6.50
2022-08-25T08:33:06.217Z,5.67
2022-08-25T08:36:12.538Z,6.17
2022-08-25T08:39:22.163Z,5.43
2022-08-25T08:42:47.581Z,10.13
2022-08-25T08:45:58.539Z,7.73
2022-08-25T08:49:22.877Z,6.07
2022-08-25T08:52:43.686Z,6.37
2022-08-25T08:55:56.774Z,4.97
2022-08-25T08:59:11.441Z,5.80
2022-08-25T09:02:39.163Z,5.23
2022-08-25T09:06:01.807Z,4.70
2022-08-25T09:09:15.002Z,7.23
2022-08-25T09:12:37.908Z,5.33
2022-08-25T09:16:10.433Z,6.30
2022-08-25T09:19:47.097Z,5.20
2022-08-25T09:23:04.034Z,5.17
2022-08-25T09:26:30.475Z,6.73
2022-08-25T09:29:55.385Z,5.57
2022-08-25T09:33:05.512Z,4.97
2022-08-25T09:36:16.612Z,5.80
2022-08-25T09:39:29.434Z,4.77
2022-08-25T09:42:49.906Z,5.60
2022-08-25T09:46:02.819Z,8.20
2022-08-25T09:49:16.755Z,4.70
2022-08-25T09:52:33.114Z,4.37
2022-08-25T09:55:44.738Z,4.90
2022-08-25T09:59:03.024Z,5.93
2022-08-25T10:02:25.257Z,4.37
2022-08-25T10:05:44.016Z,4.43
2022-08-25T10:08:59.953Z,5.33
2022-08-25T10:12:21.054Z,4.07
2022-08-25T10:15:36.251Z,4.37
2022-08-25T10:18:45.901Z,3.93
2022-08-25T10:22:06.420Z,4.37
2022-08-25T10:25:30.671Z,3.90
2022-08-25T10:28:56.880Z,4.27
2022-08-25T10:32:32.841Z,4.23
2022-08-25T10:35:53.544Z,3.63
2022-08-25T10:39:03.906Z,4.00
2022-08-25T10:42:42.864Z,11.63
2022-08-25T10:46:03.755Z,4.53
2022-08-25T10:49:19.331Z,3.70
2022-08-25T10:52:38.908Z,3.93
2022-08-25T10:56:00.626Z,3.63
2022-08-25T10:59:22.648Z,4.43
2022-08-25T11:02:58.642Z,5.00
2022-08-25T11:06:16.345Z,3.90
2022-08-25T11:09:32.778Z,3.97
2022-08-25T11:12:51.096Z,4.47
2022-08-25T11:16:17.597Z,4.93
2022-08-25T11:19:33.975Z,6.43
2022-08-25T11:22:46.884Z,4.23
2022-08-25T11:26:02.929Z,4.43
2022-08-25T11:29:15.917Z,4.90
2022-08-25T11:32:27.596Z,5.77
2022-08-25T11:35:44.015Z,4.57
2022-08-25T11:39:06.771Z,4.80
2022-08-25T11:42:30.155Z,4.63
2022-08-25T11:45:54.079Z,4.60
2022-08-25T11:49:31.504Z,5.80
2022-08-25T11:52:56.531Z,4.37
2022-08-25T11:56:09.366Z,4.63
2022-08-25T11:59:48.620Z,5.37
2022-08-25T12:03:01.526Z,6.03
2022-08-25T12:06:21.134Z,4.20
2022-08-25T12:09:30.747Z,5.97
2022-08-25T12:12:59.789Z,5.00
2022-08-25T12:16:37.778Z,5.60
2022-08-25T12:19:53.455Z,4.30
2022-08-25T12:23:04.779Z,3.80
2022-08-25T12:26:41.701Z,3.90
2022-08-25T12:30:02.232Z,5.50
2022-08-25T12:33:24.848Z,4.20
2022-08-25T12:36:35.962Z,4.10
2022-08-25T12:39:58.821Z,4.77
2022-08-25T12:43:12.252Z,4.47
2022-08-25T12:46:35.183Z,5.43
2022-08-25T12:49:44.708Z,5.10
2022-08-25T12:52:56.377Z,4.40
2022-08-25T12:56:10.741Z,4.33
2022-08-25T12:59:22.689Z,5.57
2022-08-25T13:02:54.193Z,3.80
2022-08-25T13:06:16.056Z,4.80
2022-08-25T13:10:02.841Z,4.03
2022-08-25T13:13:23.860Z,4.10
2022-08-25T13:16:34.066Z,4.83
2022-08-25T13:19:43.681Z,4.27
2022-08-25T13:22:58.103Z,6.33
2022-08-25T13:26:07.687Z,4.23
2022-08-25T13:29:23.980Z,4.23
2022-08-25T13:32:36.100Z,3.80
2022-08-25T13:35:50.015Z,4.13
2022-08-25T13:39:12.505Z,3.93
2022-08-25T13:42:28.651Z,6.37
2022-08-25T13:45:42.362Z,5.10
2022-08-25T13:49:03.841Z,7.60
2022-08-25T13:52:24.252Z,3.87
2022-08-25T13:55:51.190Z,5.57
2022-08-25T13:59:04.360Z,4.87
2022-08-25T14:02:19.651Z,4.60
2022-08-25T14:05:36.070Z,4.33
2022-08-25T14:08:49.002Z,3.93
2022-08-25T14:12:04.577Z,3.90
2022-08-25T14:15:32.070Z,3.80
2022-08-25T14:18:51.085Z,3.90
2022-08-25T14:22:02.076Z,4.30
2022-08-25T14:25:12.598Z,4.50
2022-08-25T14:28:24.136Z,4.00
2022-08-25T14:31:39.268Z,3.93
2022-08-25T14:34:50.568Z,4.03
2022-08-25T14:38:10.882Z,3.87
2022-08-25T14:41:20.599Z,4.57
2022-08-25T14:44:30.148Z,5.93
2022-08-25T14:47:41.011Z,4.07
2022-08-25T14:50:52.474Z,3.83
2022-08-25T14:54:05.655Z,3.70
2022-08-25T14:57:15.323Z,4.80
2022-08-25T15:00:26.213Z,4.10
2022-08-25T15:03:39.673Z,3.90
2022-08-25T15:06:54.123Z,3.97
2022-08-25T15:10:02.885Z,4.33
2022-08-25T15:13:14.617Z,5.20
2022-08-25T15:16:33.842Z,4.07
2022-08-25T15:19:45.065Z,4.23
2022-08-25T15:22:56.771Z,3.97
2022-08-25T15:26:09.108Z,6.53
2022-08-25T15:29:19.335Z,4.03
2022-08-25T15:32:28.906Z,4.17
2022-08-25T15:35:38.617Z,4.17
2022-08-25T15:38:49.442Z,3.80
2022-08-25T15:41:58.917Z,3.80
2022-08-25T15:45:09.443Z,3.90
2022-08-25T15:48:18.947Z,4.67
2022-08-25T15:51:29.294Z,3.90
2022-08-25T15:54:40.885Z,3.43
2022-08-25T15:57:51.569Z,4.30
2022-08-25T16:01:01.839Z,5.70
2022-08-25T16:04:12.592Z,4.10
2022-08-25T16:07:22.125Z,3.50
2022-08-25T16:10:36.452Z,4.10
2022-08-25T16:13:46.271Z,3.80
2022-08-25T16:16:58.007Z,3.97
2022-08-25T16:20:13.702Z,3.73
2022-08-25T16:23:23.708Z,4.37
2022-08-25T16:26:36.280Z,3.00
2022-08-25T16:29:45.849Z,4.87
2022-08-25T16:32:55.355Z,3.57
2022-08-25T16:36:07.502Z,3.40
2022-08-25T16:39:18.206Z,3.93
2022-08-25T16:42:29.822Z,3.53
2022-08-25T16:45:39.403Z,4.23
2022-08-25T16:48:50.326Z,5.90
2022-08-25T16:51:59.852Z,3.43
2022-08-25T16:55:12.910Z,3.63
2022-08-25T16:58:23.659Z,3.73
2022-08-25T17:01:35.229Z,3.73
2022-08-25T17:04:44.832Z,5.83
2022-08-25T17:08:06.545Z,4.97
2022-08-25T17:11:18.427Z,3.70
2022-08-25T17:14:29.372Z,3.90
2022-08-25T17:17:38.861Z,4.17
2022-08-25T17:20:51.151Z,5.37
2022-08-25T17:24:01.179Z,3.73
2022-08-25T17:27:14.448Z,5.67
2022-08-25T17:30:27.726Z,4.40
2022-08-25T17:33:38.134Z,3.47
2022-08-25T17:36:48.241Z,4.17
2022-08-25T17:40:02.634Z,6.80
2022-08-25T17:46:21.802Z,3.70
2022-08-25T17:49:32.068Z,3.80
2022-08-25T17:52:41.935Z,3.50
2022-08-25T17:56:00.243Z,5.00
2022-08-25T17:59:11.862Z,4.00
2022-08-25T18:02:23.027Z,4.00
2022-08-25T18:05:33.697Z,4.40
2022-08-25T18:08:44.322Z,5.63
2022-08-25T18:11:54.184Z,4.10
2022-08-25T18:15:05.575Z,3.90
2022-08-25T18:18:17.317Z,3.73
2022-08-25T18:21:30.682Z,4.03
2022-08-25T18:24:40.785Z,4.50
2022-08-25T18:27:50.691Z,3.97
2022-08-25T18:31:00.817Z,5.30
2022-08-25T18:34:13.507Z,4.30
2022-08-25T18:37:34.605Z,4.10
2022-08-25T18:40:44.684Z,5.43
2022-08-25T18:43:54.783Z,4.60
2022-08-25T18:47:07.378Z,3.73
2022-08-25T18:50:19.286Z,4.43
2022-08-25T18:53:37.362Z,4.40
2022-08-25T18:56:59.813Z,4.30
2022-08-25T19:00:12.551Z,6.57
2022-08-25T19:03:23.416Z,3.60
2022-08-25T19:06:37.150Z,3.80
2022-08-25T19:09:47.090Z,3.97
2022-08-25T19:13:02.233Z,5.90
2022-08-25T19:16:30.790Z,4.30
2022-08-25T19:19:40.695Z,5.13
2022-08-25T19:22:52.858Z,4.60
2022-08-25T19:26:02.749Z,4.53
2022-08-25T19:29:16.495Z,3.80
2022-08-25T19:32:26.633Z,5.20
2022-08-25T19:35:40.977Z,6.77
2022-08-25T19:38:53.344Z,5.03
2022-08-25T19:42:03.644Z,5.13
